sensor_id;sensor_type;location;lat;lon;timestamp;P1;durP1;ratioP1;P2;durP2;ratioP2
41943;SDS011;27636;52.610;13.244;2023-10-09T00:01:30;8.15;;;2.85;;
41943;SDS011;27636;52.610;13.244;2023-10-09T00:06:35;5.15;;;2.42;;
41943;SDS011;27636;52.610;13.244;2023-10-09T00:11:41;9.85;;;2.08;;
41943;SDS011;27636;52.610;13.244;2023-10-09T00:16:49;8.38;;;2.53;;
41943;SDS011;27636;52.610;13.244;2023-10-09T00:21:59;5.65;;;1.92;;
41943;SDS011;27636;52.610;13.244;2023-10-09T00:27:14;7.20;;;2.03;;
41943;SDS011;27636;52.610;13.244;2023-10-09T00:32:19;8.45;;;3.10;;
41943;SDS011;27636;52.610;13.244;2023-10-09T00:37:25;4.97;;;1.80;;
41943;SDS011;27636;52.610;13.244;2023-10-09T00:42:37;9.35;;;2.10;;
41943;SDS011;27636;52.610;13.244;2023-10-09T00:47:43;4.32;;;1.95;;
41943;SDS011;27636;52.610;13.244;2023-10-09T00:57:54;4.38;;;1.90;;
41943;SDS011;27636;52.610;13.244;2023-10-09T01:03:10;5.07;;;1.95;;
41943;SDS011;27636;52.610;13.244;2023-10-09T01:08:21;5.75;;;2.20;;
41943;SDS011;27636;52.610;13.244;2023-10-09T01:13:33;11.43;;;2.10;;
41943;SDS011;27636;52.610;13.244;2023-10-09T01:18:51;5.80;;;1.80;;
41943;SDS011;27636;52.610;13.244;2023-10-09T01:23:56;5.50;;;2.20;;
41943;SDS011;27636;52.610;13.244;2023-10-09T01:29:08;6.28;;;2.90;;
41943;SDS011;27636;52.610;13.244;2023-10-09T01:34:19;4.88;;;2.55;;
41943;SDS011;27636;52.610;13.244;2023-10-09T01:39:29;5.35;;;2.10;;
41943;SDS011;27636;52.610;13.244;2023-10-09T01:44:33;5.85;;;2.05;;
41943;SDS011;27636;52.610;13.244;2023-10-09T01:49:46;5.25;;;2.10;;
41943;SDS011;27636;52.610;13.244;2023-10-09T01:54:54;4.32;;;2.25;;
41943;SDS011;27636;52.610;13.244;2023-10-09T02:00:05;8.57;;;3.20;;
41943;SDS011;27636;52.610;13.244;2023-10-09T02:05:14;5.45;;;2.42;;
41943;SDS011;27636;52.610;13.244;2023-10-09T02:10:19;7.95;;;2.63;;
41943;SDS011;27636;52.610;13.244;2023-10-09T02:15:33;8.95;;;2.25;;
41943;SDS011;27636;52.610;13.244;2023-10-09T02:20:49;7.78;;;2.47;;
41943;SDS011;27636;52.610;13.244;2023-10-09T02:26:04;8.68;;;2.70;;
41943;SDS011;27636;52.610;13.244;2023-10-09T02:31:09;10.73;;;2.92;;
41943;SDS011;27636;52.610;13.244;2023-10-09T02:36:14;9.25;;;2.58;;
41943;SDS011;27636;52.610;13.244;2023-10-09T02:41:19;10.43;;;2.45;;
41943;SDS011;27636;52.610;13.244;2023-10-09T02:46:23;5.85;;;2.50;;
41943;SDS011;27636;52.610;13.244;2023-10-09T02:51:34;8.15;;;2.72;;
41943;SDS011;27636;52.610;13.244;2023-10-09T02:56:45;7.57;;;2.53;;
41943;SDS011;27636;52.610;13.244;2023-10-09T03:01:51;9.68;;;2.45;;
41943;SDS011;27636;52.610;13.244;2023-10-09T03:12:02;6.45;;;2.47;;
41943;SDS011;27636;52.610;13.244;2023-10-09T03:17:06;10.00;;;2.80;;
41943;SDS011;27636;52.610;13.244;2023-10-09T03:22:16;8.15;;;2.75;;
41943;SDS011;27636;52.610;13.244;2023-10-09T03:27:21;7.20;;;2.65;;
41943;SDS011;27636;52.610;13.244;2023-10-09T03:32:24;7.78;;;2.55;;
41943;SDS011;27636;52.610;13.244;2023-10-09T03:37:28;9.18;;;2.83;;
41943;SDS011;27636;52.610;13.244;2023-10-09T03:42:39;11.18;;;3.05;;
41943;SDS011;27636;52.610;13.244;2023-10-09T03:47:45;6.28;;;2.38;;
41943;SDS011;27636;52.610;13.244;2023-10-09T03:52:51;15.02;;;3.00;;
41943;SDS011;27636;52.610;13.244;2023-10-09T03:58:00;7.47;;;3.00;;
41943;SDS011;27636;52.610;13.244;2023-10-09T04:08:09;9.30;;;3.15;;
41943;SDS011;27636;52.610;13.244;2023-10-09T04:13:33;9.25;;;3.55;;
41943;SDS011;27636;52.610;13.244;2023-10-09T04:18:37;18.85;;;3.42;;
41943;SDS011;27636;52.610;13.244;2023-10-09T04:23:43;10.60;;;4.20;;
41943;SDS011;27636;52.610;13.244;2023-10-09T04:29:15;8.13;;;3.55;;
41943;SDS011;27636;52.610;13.244;2023-10-09T04:34:40;8.88;;;3.45;;
41943;SDS011;27636;52.610;13.244;2023-10-09T04:39:51;7.63;;;3.17;;
41943;SDS011;27636;52.610;13.244;2023-10-09T04:45:15;8.35;;;4.00;;
41943;SDS011;27636;52.610;13.244;2023-10-09T04:50:19;10.82;;;4.40;;
41943;SDS011;27636;52.610;13.244;2023-10-09T04:55:35;11.43;;;4.10;;
41943;SDS011;27636;52.610;13.244;2023-10-09T05:00:43;10.88;;;4.53;;
41943;SDS011;27636;52.610;13.244;2023-10-09T05:11:45;10.75;;;3.97;;
41943;SDS011;27636;52.610;13.244;2023-10-09T05:16:55;6.80;;;3.33;;
41943;SDS011;27636;52.610;13.244;2023-10-09T05:22:04;10.18;;;4.45;;
41943;SDS011;27636;52.610;13.244;2023-10-09T05:27:12;10.95;;;4.70;;
41943;SDS011;27636;52.610;13.244;2023-10-09T05:32:28;8.97;;;4.30;;
41943;SDS011;27636;52.610;13.244;2023-10-09T05:37:38;11.30;;;4.78;;
41943;SDS011;27636;52.610;13.244;2023-10-09T05:42:46;11.57;;;4.50;;
41943;SDS011;27636;52.610;13.244;2023-10-09T05:48:02;10.93;;;4.30;;
41943;SDS011;27636;52.610;13.244;2023-10-09T05:53:07;12.77;;;4.32;;
41943;SDS011;27636;52.610;13.244;2023-10-09T05:58:33;12.00;;;4.90;;
41943;SDS011;27636;52.610;13.244;2023-10-09T06:03:57;12.30;;;4.63;;
41943;SDS011;27636;52.610;13.244;2023-10-09T06:09:19;10.55;;;5.22;;
41943;SDS011;27636;52.610;13.244;2023-10-09T06:14:23;12.32;;;5.93;;
41943;SDS011;27636;52.610;13.244;2023-10-09T06:19:34;12.18;;;4.88;;
41943;SDS011;27636;52.610;13.244;2023-10-09T06:24:47;13.93;;;6.22;;
41943;SDS011;27636;52.610;13.244;2023-10-09T06:29:53;11.00;;;4.78;;
41943;SDS011;27636;52.610;13.244;2023-10-09T06:35:17;14.15;;;5.75;;
41943;SDS011;27636;52.610;13.244;2023-10-09T06:40:21;11.23;;;4.63;;
41943;SDS011;27636;52.610;13.244;2023-10-09T06:45:44;13.35;;;5.80;;
41943;SDS011;27636;52.610;13.244;2023-10-09T06:50:49;11.35;;;4.85;;
41943;SDS011;27636;52.610;13.244;2023-10-09T06:55:59;10.55;;;4.65;;
41943;SDS011;27636;52.610;13.244;2023-10-09T07:01:09;13.93;;;5.00;;
41943;SDS011;27636;52.610;13.244;2023-10-09T07:06:43;15.63;;;5.20;;
41943;SDS011;27636;52.610;13.244;2023-10-09T07:11:48;15.02;;;5.68;;
41943;SDS011;27636;52.610;13.244;2023-10-09T07:16:53;12.38;;;4.88;;
41943;SDS011;27636;52.610;13.244;2023-10-09T07:22:04;15.15;;;4.63;;
41943;SDS011;27636;52.610;13.244;2023-10-09T07:27:19;11.02;;;4.43;;
41943;SDS011;27636;52.610;13.244;2023-10-09T07:32:42;13.52;;;5.07;;
41943;SDS011;27636;52.610;13.244;2023-10-09T07:37:52;8.57;;;4.13;;
41943;SDS011;27636;52.610;13.244;2023-10-09T07:42:56;16.30;;;4.38;;
41943;SDS011;27636;52.610;13.244;2023-10-09T07:48:07;14.27;;;5.32;;
41943;SDS011;27636;52.610;13.244;2023-10-09T07:53:19;11.52;;;4.35;;
41943;SDS011;27636;52.610;13.244;2023-10-09T07:58:29;12.02;;;3.63;;
41943;SDS011;27636;52.610;13.244;2023-10-09T08:03:33;12.13;;;3.70;;
41943;SDS011;27636;52.610;13.244;2023-10-09T08:08:39;7.43;;;3.03;;
41943;SDS011;27636;52.610;13.244;2023-10-09T08:13:55;13.07;;;4.20;;
41943;SDS011;27636;52.610;13.244;2023-10-09T08:18:59;16.05;;;4.35;;
41943;SDS011;27636;52.610;13.244;2023-10-09T08:24:04;9.85;;;4.13;;
41943;SDS011;27636;52.610;13.244;2023-10-09T08:29:25;12.82;;;4.70;;
41943;SDS011;27636;52.610;13.244;2023-10-09T08:34:37;6.97;;;3.10;;
41943;SDS011;27636;52.610;13.244;2023-10-09T08:39:55;9.85;;;4.38;;
41943;SDS011;27636;52.610;13.244;2023-10-09T08:44:59;11.70;;;3.75;;
41943;SDS011;27636;52.610;13.244;2023-10-09T08:50:07;9.73;;;4.22;;
41943;SDS011;27636;52.610;13.244;2023-10-09T08:55:17;9.02;;;4.35;;
41943;SDS011;27636;52.610;13.244;2023-10-09T09:00:21;16.42;;;4.55;;
41943;SDS011;27636;52.610;13.244;2023-10-09T09:05:26;10.90;;;5.35;;
41943;SDS011;27636;52.610;13.244;2023-10-09T09:10:33;8.52;;;4.20;;
41943;SDS011;27636;52.610;13.244;2023-10-09T09:15:41;15.63;;;4.50;;
41943;SDS011;27636;52.610;13.244;2023-10-09T09:20:50;13.55;;;5.50;;
41943;SDS011;27636;52.610;13.244;2023-10-09T09:25:58;12.32;;;4.53;;
41943;SDS011;27636;52.610;13.244;2023-10-09T09:31:07;13.93;;;4.32;;
41943;SDS011;27636;52.610;13.244;2023-10-09T09:36:16;13.73;;;4.43;;
41943;SDS011;27636;52.610;13.244;2023-10-09T09:41:21;9.55;;;3.47;;
41943;SDS011;27636;52.610;13.244;2023-10-09T09:46:29;9.88;;;4.97;;
41943;SDS011;27636;52.610;13.244;2023-10-09T09:51:40;10.88;;;4.68;;
41943;SDS011;27636;52.610;13.244;2023-10-09T09:56:47;7.15;;;3.83;;
41943;SDS011;27636;52.610;13.244;2023-10-09T10:01:54;10.55;;;4.60;;
41943;SDS011;27636;52.610;13.244;2023-10-09T10:07:09;11.05;;;4.75;;
41943;SDS011;27636;52.610;13.244;2023-10-09T10:12:40;13.25;;;4.47;;
41943;SDS011;27636;52.610;13.244;2023-10-09T10:18:07;11.30;;;4.43;;
41943;SDS011;27636;52.610;13.244;2023-10-09T10:23:17;10.70;;;5.20;;
41943;SDS011;27636;52.610;13.244;2023-10-09T10:28:30;8.00;;;3.63;;
41943;SDS011;27636;52.610;13.244;2023-10-09T10:34:03;10.65;;;4.40;;
41943;SDS011;27636;52.610;13.244;2023-10-09T10:39:10;9.85;;;4.70;;
41943;SDS011;27636;52.610;13.244;2023-10-09T10:44:27;9.43;;;4.72;;
41943;SDS011;27636;52.610;13.244;2023-10-09T10:49:42;10.02;;;4.05;;
41943;SDS011;27636;52.610;13.244;2023-10-09T10:54:46;12.07;;;4.30;;
41943;SDS011;27636;52.610;13.244;2023-10-09T11:00:11;11.27;;;3.92;;
41943;SDS011;27636;52.610;13.244;2023-10-09T11:05:18;9.63;;;4.45;;
41943;SDS011;27636;52.610;13.244;2023-10-09T11:10:28;9.60;;;4.07;;
41943;SDS011;27636;52.610;13.244;2023-10-09T11:15:37;8.32;;;3.17;;
41943;SDS011;27636;52.610;13.244;2023-10-09T11:20:49;12.10;;;3.38;;
41943;SDS011;27636;52.610;13.244;2023-10-09T11:26:07;6.20;;;3.00;;
41943;SDS011;27636;52.610;13.244;2023-10-09T11:31:30;8.95;;;3.33;;
41943;SDS011;27636;52.610;13.244;2023-10-09T11:36:37;9.07;;;3.35;;
41943;SDS011;27636;52.610;13.244;2023-10-09T11:41:42;6.13;;;3.10;;
41943;SDS011;27636;52.610;13.244;2023-10-09T11:46:57;8.23;;;3.65;;
41943;SDS011;27636;52.610;13.244;2023-10-09T11:52:17;7.22;;;3.05;;
41943;SDS011;27636;52.610;13.244;2023-10-09T11:57:39;8.07;;;3.72;;
41943;SDS011;27636;52.610;13.244;2023-10-09T12:02:45;10.75;;;3.30;;
41943;SDS011;27636;52.610;13.244;2023-10-09T12:12:58;7.60;;;3.75;;
41943;SDS011;27636;52.610;13.244;2023-10-09T12:18:03;6.75;;;3.08;;
41943;SDS011;27636;52.610;13.244;2023-10-09T12:23:10;6.88;;;3.67;;
41943;SDS011;27636;52.610;13.244;2023-10-09T12:28:17;9.02;;;3.67;;
41943;SDS011;27636;52.610;13.244;2023-10-09T12:33:24;8.57;;;3.70;;
41943;SDS011;27636;52.610;13.244;2023-10-09T12:38:31;9.18;;;4.25;;
41943;SDS011;27636;52.610;13.244;2023-10-09T12:43:35;7.10;;;3.60;;
41943;SDS011;27636;52.610;13.244;2023-10-09T12:48:42;10.40;;;4.03;;
41943;SDS011;27636;52.610;13.244;2023-10-09T12:53:49;9.35;;;4.18;;
41943;SDS011;27636;52.610;13.244;2023-10-09T12:59:00;10.98;;;3.97;;
41943;SDS011;27636;52.610;13.244;2023-10-09T13:04:06;15.10;;;4.40;;
41943;SDS011;27636;52.610;13.244;2023-10-09T13:09:15;8.82;;;4.38;;
41943;SDS011;27636;52.610;13.244;2023-10-09T13:14:27;7.57;;;4.35;;
41943;SDS011;27636;52.610;13.244;2023-10-09T13:19:33;12.55;;;4.43;;
41943;SDS011;27636;52.610;13.244;2023-10-09T13:24:36;9.63;;;4.70;;
41943;SDS011;27636;52.610;13.244;2023-10-09T13:29:42;11.13;;;5.10;;
41943;SDS011;27636;52.610;13.244;2023-10-09T13:34:47;10.27;;;4.30;;
41943;SDS011;27636;52.610;13.244;2023-10-09T13:39:52;9.07;;;4.47;;
41943;SDS011;27636;52.610;13.244;2023-10-09T13:44:56;9.48;;;4.45;;
41943;SDS011;27636;52.610;13.244;2023-10-09T13:50:01;13.07;;;4.75;;
41943;SDS011;27636;52.610;13.244;2023-10-09T13:55:06;10.65;;;4.10;;
41943;SDS011;27636;52.610;13.244;2023-10-09T14:00:20;8.13;;;3.88;;
41943;SDS011;27636;52.610;13.244;2023-10-09T14:05:37;13.88;;;4.60;;
41943;SDS011;27636;52.610;13.244;2023-10-09T14:10:47;11.00;;;4.55;;
41943;SDS011;27636;52.610;13.244;2023-10-09T14:15:51;12.98;;;5.85;;
41943;SDS011;27636;52.610;13.244;2023-10-09T14:21:02;11.82;;;5.40;;
41943;SDS011;27636;52.610;13.244;2023-10-09T14:26:19;9.80;;;6.07;;
41943;SDS011;27636;52.610;13.244;2023-10-09T14:31:25;12.63;;;5.63;;
41943;SDS011;27636;52.610;13.244;2023-10-09T14:36:32;13.02;;;6.03;;
41943;SDS011;27636;52.610;13.244;2023-10-09T14:41:39;13.68;;;5.85;;
41943;SDS011;27636;52.610;13.244;2023-10-09T14:46:44;17.95;;;6.50;;
41943;SDS011;27636;52.610;13.244;2023-10-09T14:51:49;9.77;;;5.15;;
41943;SDS011;27636;52.610;13.244;2023-10-09T14:56:54;13.35;;;4.97;;
41943;SDS011;27636;52.610;13.244;2023-10-09T15:01:57;11.07;;;4.97;;
41943;SDS011;27636;52.610;13.244;2023-10-09T15:07:03;11.97;;;6.00;;
41943;SDS011;27636;52.610;13.244;2023-10-09T15:12:10;12.65;;;6.30;;
41943;SDS011;27636;52.610;13.244;2023-10-09T15:17:14;12.50;;;5.63;;
41943;SDS011;27636;52.610;13.244;2023-10-09T15:22:27;12.38;;;5.80;;
41943;SDS011;27636;52.610;13.244;2023-10-09T15:27:38;14.02;;;6.70;;
41943;SDS011;27636;52.610;13.244;2023-10-09T15:32:42;13.73;;;6.70;;
41943;SDS011;27636;52.610;13.244;2023-10-09T15:37:47;13.10;;;5.43;;
41943;SDS011;27636;52.610;13.244;2023-10-09T15:42:55;11.98;;;5.95;;
41943;SDS011;27636;52.610;13.244;2023-10-09T15:47:59;14.02;;;5.93;;
41943;SDS011;27636;52.610;13.244;2023-10-09T15:53:06;12.68;;;6.40;;
41943;SDS011;27636;52.610;13.244;2023-10-09T15:58:11;15.45;;;7.35;;
41943;SDS011;27636;52.610;13.244;2023-10-09T16:03:15;12.35;;;6.28;;
41943;SDS011;27636;52.610;13.244;2023-10-09T16:08:20;12.63;;;6.28;;
41943;SDS011;27636;52.610;13.244;2023-10-09T16:13:25;11.65;;;5.90;;
41943;SDS011;27636;52.610;13.244;2023-10-09T16:18:30;12.10;;;6.53;;
41943;SDS011;27636;52.610;13.244;2023-10-09T16:23:38;13.63;;;6.32;;
41943;SDS011;27636;52.610;13.244;2023-10-09T16:28:45;15.15;;;6.20;;
41943;SDS011;27636;52.610;13.244;2023-10-09T16:33:51;15.45;;;7.15;;
41943;SDS011;27636;52.610;13.244;2023-10-09T16:38:56;13.75;;;5.93;;
41943;SDS011;27636;52.610;13.244;2023-10-09T16:44:02;17.20;;;6.68;;
41943;SDS011;27636;52.610;13.244;2023-10-09T16:49:08;15.20;;;7.65;;
41943;SDS011;27636;52.610;13.244;2023-10-09T16:54:16;14.57;;;6.65;;
41943;SDS011;27636;52.610;13.244;2023-10-09T16:59:19;18.20;;;8.00;;
41943;SDS011;27636;52.610;13.244;2023-10-09T17:04:25;16.50;;;6.65;;
41943;SDS011;27636;52.610;13.244;2023-10-09T17:09:31;16.50;;;7.60;;
41943;SDS011;27636;52.610;13.244;2023-10-09T17:14:37;15.20;;;8.13;;
41943;SDS011;27636;52.610;13.244;2023-10-09T17:19:42;19.60;;;8.20;;
41943;SDS011;27636;52.610;13.244;2023-10-09T17:24:48;21.90;;;8.48;;
41943;SDS011;27636;52.610;13.244;2023-10-09T17:29:52;16.20;;;8.73;;
41943;SDS011;27636;52.610;13.244;2023-10-09T17:34:55;19.05;;;8.75;;
41943;SDS011;27636;52.610;13.244;2023-10-09T17:40:01;24.15;;;9.02;;
41943;SDS011;27636;52.610;13.244;2023-10-09T17:45:05;22.73;;;9.25;;
41943;SDS011;27636;52.610;13.244;2023-10-09T17:50:10;21.90;;;8.98;;
41943;SDS011;27636;52.610;13.244;2023-10-09T17:55:15;22.17;;;10.48;;
41943;SDS011;27636;52.610;13.244;2023-10-09T18:00:21;25.90;;;10.23;;
41943;SDS011;27636;52.610;13.244;2023-10-09T18:05:28;20.05;;;9.98;;
41943;SDS011;27636;52.610;13.244;2023-10-09T18:10:34;24.42;;;10.65;;
41943;SDS011;27636;52.610;13.244;2023-10-09T18:15:46;17.85;;;9.52;;
41943;SDS011;27636;52.610;13.244;2023-10-09T18:20:51;19.60;;;8.50;;
41943;SDS011;27636;52.610;13.244;2023-10-09T18:25:57;20.70;;;11.02;;
41943;SDS011;27636;52.610;13.244;2023-10-09T18:31:01;20.00;;;9.20;;
41943;SDS011;27636;52.610;13.244;2023-10-09T18:36:09;23.38;;;10.43;;
41943;SDS011;27636;52.610;13.244;2023-10-09T18:41:14;24.83;;;10.13;;
41943;SDS011;27636;52.610;13.244;2023-10-09T18:46:19;23.45;;;11.25;;
41943;SDS011;27636;52.610;13.244;2023-10-09T18:51:22;23.27;;;10.30;;
41943;SDS011;27636;52.610;13.244;2023-10-09T18:56:27;27.92;;;11.73;;
41943;SDS011;27636;52.610;13.244;2023-10-09T19:06:35;17.90;;;9.10;;
41943;SDS011;27636;52.610;13.244;2023-10-09T19:11:40;23.07;;;10.70;;
41943;SDS011;27636;52.610;13.244;2023-10-09T19:16:46;22.38;;;9.75;;
41943;SDS011;27636;52.610;13.244;2023-10-09T19:21:50;25.60;;;11.88;;
41943;SDS011;27636;52.610;13.244;2023-10-09T19:26:57;24.50;;;10.65;;
41943;SDS011;27636;52.610;13.244;2023-10-09T19:32:05;26.40;;;11.18;;
41943;SDS011;27636;52.610;13.244;2023-10-09T19:37:08;22.83;;;10.77;;
41943;SDS011;27636;52.610;13.244;2023-10-09T19:42:14;20.67;;;9.55;;
41943;SDS011;27636;52.610;13.244;2023-10-09T19:47:17;20.95;;;9.93;;
41943;SDS011;27636;52.610;13.244;2023-10-09T19:52:23;22.85;;;10.25;;
41943;SDS011;27636;52.610;13.244;2023-10-09T19:57:28;25.20;;;10.02;;
41943;SDS011;27636;52.610;13.244;2023-10-09T20:02:34;22.60;;;10.60;;
41943;SDS011;27636;52.610;13.244;2023-10-09T20:07:39;20.20;;;9.13;;
41943;SDS011;27636;52.610;13.244;2023-10-09T20:12:44;19.80;;;8.57;;
41943;SDS011;27636;52.610;13.244;2023-10-09T20:22:51;18.90;;;9.15;;
41943;SDS011;27636;52.610;13.244;2023-10-09T20:27:56;17.85;;;8.02;;
41943;SDS011;27636;52.610;13.244;2023-10-09T20:33:00;19.00;;;8.15;;
41943;SDS011;27636;52.610;13.244;2023-10-09T20:38:04;14.15;;;7.15;;
41943;SDS011;27636;52.610;13.244;2023-10-09T20:43:10;19.33;;;7.28;;
41943;SDS011;27636;52.610;13.244;2023-10-09T20:48:14;24.75;;;9.23;;
41943;SDS011;27636;52.610;13.244;2023-10-09T20:53:19;15.05;;;7.65;;
41943;SDS011;27636;52.610;13.244;2023-10-09T20:58:25;18.70;;;8.57;;
41943;SDS011;27636;52.610;13.244;2023-10-09T21:03:28;19.85;;;8.95;;
41943;SDS011;27636;52.610;13.244;2023-10-09T21:08:32;18.30;;;9.15;;
41943;SDS011;27636;52.610;13.244;2023-10-09T21:13:37;16.17;;;8.35;;
41943;SDS011;27636;52.610;13.244;2023-10-09T21:18:43;23.80;;;9.23;;
41943;SDS011;27636;52.610;13.244;2023-10-09T21:23:48;20.77;;;8.63;;
41943;SDS011;27636;52.610;13.244;2023-10-09T21:28:53;19.30;;;8.83;;
41943;SDS011;27636;52.610;13.244;2023-10-09T21:33:57;25.00;;;11.13;;
41943;SDS011;27636;52.610;13.244;2023-10-09T21:39:00;22.48;;;9.45;;
41943;SDS011;27636;52.610;13.244;2023-10-09T21:44:05;20.48;;;8.88;;
41943;SDS011;27636;52.610;13.244;2023-10-09T21:49:16;24.40;;;8.63;;
41943;SDS011;27636;52.610;13.244;2023-10-09T21:54:20;24.83;;;10.02;;
41943;SDS011;27636;52.610;13.244;2023-10-09T21:59:25;25.63;;;10.18;;
41943;SDS011;27636;52.610;13.244;2023-10-09T22:04:33;21.55;;;9.45;;
41943;SDS011;27636;52.610;13.244;2023-10-09T22:09:36;19.95;;;9.45;;
41943;SDS011;27636;52.610;13.244;2023-10-09T22:14:41;23.35;;;10.52;;
41943;SDS011;27636;52.610;13.244;2023-10-09T22:19:45;22.70;;;9.02;;
41943;SDS011;27636;52.610;13.244;2023-10-09T22:24:50;23.50;;;9.27;;
41943;SDS011;27636;52.610;13.244;2023-10-09T22:29:55;26.33;;;9.77;;
41943;SDS011;27636;52.610;13.244;2023-10-09T22:34:59;23.80;;;10.68;;
41943;SDS011;27636;52.610;13.244;2023-10-09T22:40:03;31.97;;;12.47;;
41943;SDS011;27636;52.610;13.244;2023-10-09T22:45:24;28.52;;;11.13;;
41943;SDS011;27636;52.610;13.244;2023-10-09T22:50:35;27.63;;;9.65;;
41943;SDS011;27636;52.610;13.244;2023-10-09T22:55:39;22.98;;;9.50;;
41943;SDS011;27636;52.610;13.244;2023-10-09T23:00:48;26.40;;;9.00;;
41943;SDS011;27636;52.610;13.244;2023-10-09T23:05:55;23.63;;;9.93;;
41943;SDS011;27636;52.610;13.244;2023-10-09T23:11:00;22.02;;;8.85;;
41943;SDS011;27636;52.610;13.244;2023-10-09T23:16:14;23.75;;;9.15;;
41943;SDS011;27636;52.610;13.244;2023-10-09T23:26:32;21.88;;;8.77;;
41943;SDS011;27636;52.610;13.244;2023-10-09T23:31:57;20.30;;;9.57;;
41943;SDS011;27636;52.610;13.244;2023-10-09T23:37:01;18.83;;;9.05;;
41943;SDS011;27636;52.610;13.244;2023-10-09T23:42:06;23.40;;;8.43;;
41943;SDS011;27636;52.610;13.244;2023-10-09T23:47:20;23.08;;;8.07;;
41943;SDS011;27636;52.610;13.244;2023-10-09T23:52:30;15.90;;;7.60;;
41943;SDS011;27636;52.610;13.244;2023-10-09T23:57:35;21.02;;;7.60;;
